Terminal Aerodrome Forecast
Issued by NWS

Home | Current Version | Previous Version | Graphics & Text | Print | Product List | Glossary On
Versions: 1 2 3 4 5 6 7 8 9 10 11 12 13 14 15 16 17 18 19 20 21 22 23 24
336
FTUS45 KGGW 181120
TAFGDV
TAF
KGDV 181120Z 1812/1912 33009KT P6SM SCT200
     FM181800 28014KT P6SM FEW230
     FM190000 26006KT P6SM FEW170=

USA.gov is the U.S. government's official web portal to all federal, state and local government web resources and services.